createdAt,value
2022-10-12T00:04:30.680Z,542.05825
2022-10-12T00:09:32.271Z,494
2022-10-12T00:14:33.894Z,410.66667
2022-10-12T00:19:35.472Z,509.13761
2022-10-12T00:24:41.975Z,193.39271
2022-10-12T00:29:44.659Z,390.37681
2022-10-12T00:34:46.458Z,553.90099
2022-10-12T00:39:48.035Z,799.55556
2022-10-12T00:44:49.634Z,461.64706
2022-10-12T00:49:51.295Z,269.92593
2022-10-12T00:54:52.933Z,280.61202
2022-10-12T00:59:54.542Z,271.65957
2022-10-12T01:04:56.151Z,263.17098
2022-10-12T01:09:57.790Z,261.52577
2022-10-12T01:14:59.397Z,203.91561
2022-10-12T01:20:01.012Z,300.06936
2022-10-12T01:25:02.667Z,429.03937
2022-10-12T01:30:04.414Z,329
2022-10-12T01:35:06.034Z,201.74059
2022-10-12T01:40:07.651Z,268.21053
2022-10-12T01:45:09.243Z,560
2022-10-12T01:50:10.892Z,414.22901
2022-10-12T01:55:12.546Z,380.87943
2022-10-12T02:00:14.196Z,310.66667
2022-10-12T02:05:15.804Z,181.83784
2022-10-12T02:10:17.461Z,566.22222
2022-10-12T02:15:19.079Z,479.65217
2022-10-12T02:20:20.903Z,252
2022-10-12T02:25:22.469Z,403.70149
2022-10-12T02:30:24.086Z,252
2022-10-12T02:35:25.690Z,238.73684
2022-10-12T02:40:27.297Z,329
2022-10-12T02:45:28.859Z,341.41935
2022-10-12T02:50:30.472Z,479.65217
2022-10-12T02:55:32.120Z,498.95495
2022-10-12T03:00:33.736Z,504
2022-10-12T03:05:36.893Z,377.80282
2022-10-12T03:10:38.662Z,280.61202
2022-10-12T03:15:40.280Z,479.65217
2022-10-12T03:20:41.936Z,414.22901
2022-10-12T03:25:43.551Z,331.42138
2022-10-12T03:30:45.127Z,365.91781
2022-10-12T03:35:46.795Z,387.16547
2022-10-12T03:40:48.389Z,317.33333
2022-10-12T03:45:49.975Z,268.21053
2022-10-12T03:50:51.534Z,233.20188
2022-10-12T03:55:53.082Z,220.23318
2022-10-12T04:00:54.693Z,308.49704
2022-10-12T04:05:56.257Z,310.66667
2022-10-12T04:10:57.832Z,275.1828
2022-10-12T04:15:59.428Z,286.22222
2022-10-12T04:21:01.103Z,255.11111
2022-10-12T04:26:02.702Z,224
2022-10-12T04:31:04.336Z,201.74059
2022-10-12T04:36:06.063Z,205.01695
2022-10-12T04:41:07.686Z,253.54774
2022-10-12T04:46:09.321Z,215.36564
2022-10-12T04:51:10.899Z,176.45283
2022-10-12T04:56:12.519Z,181.83784
2022-10-12T05:01:14.141Z,224
2022-10-12T05:06:15.761Z,189.41833
2022-10-12T05:11:17.365Z,253.54774
2022-10-12T05:16:18.963Z,253.54774
2022-10-12T05:21:20.586Z,164.78853
2022-10-12T05:26:22.158Z,141.4359
2022-10-12T05:31:23.770Z,188.44444
2022-10-12T05:36:25.420Z,199.60166
2022-10-12T05:41:27.004Z,190.4
2022-10-12T05:46:28.603Z,205.01695
2022-10-12T05:51:30.242Z,216.56637
2022-10-12T05:56:31.995Z,238.73684
2022-10-12T06:01:33.637Z,234.56604
2022-10-12T06:06:35.346Z,315.08434
2022-10-12T06:11:36.985Z,231.85047
2022-10-12T06:16:38.594Z,220.23318
2022-10-12T06:21:40.225Z,261.52577
2022-10-12T06:26:42.097Z,243.02913
2022-10-12T06:31:47.694Z,266.51309
2022-10-12T06:36:52.390Z,290.06742
2022-10-12T06:41:54.036Z,253.54774
2022-10-12T06:46:55.620Z,245.96078
2022-10-12T06:51:57.218Z,264.83333
2022-10-12T06:56:58.948Z,298.02299
2022-10-12T07:02:00.656Z,317.33333
2022-10-12T07:07:02.386Z,245.96078
2022-10-12T07:12:04.056Z,238.73684
2022-10-12T07:17:05.680Z,226.56881
2022-10-12T07:22:07.293Z,224
2022-10-12T07:27:08.850Z,189.41833
2022-10-12T07:32:10.443Z,227.87097
2022-10-12T07:37:12.108Z,198.54545
2022-10-12T07:42:18.933Z,201.74059
2022-10-12T07:47:21.042Z,238.73684
2022-10-12T07:52:22.650Z,225.27854
2022-10-12T07:57:24.337Z,203.91561
2022-10-12T08:02:26.006Z,215.36564
2022-10-12T08:07:27.578Z,248.9505
2022-10-12T08:12:29.214Z,253.54774
2022-10-12T08:17:30.820Z,266.51309
2022-10-12T08:22:32.434Z,230.51163
2022-10-12T08:27:34.028Z,200.66667
2022-10-12T08:32:35.616Z,197.49794
2022-10-12T08:37:37.525Z,208.37768
2022-10-12T08:42:39.301Z,256.69036
2022-10-12T08:47:41.464Z,221.47748
2022-10-12T08:52:43.452Z,150.02007
2022-10-12T08:57:49.117Z,126.24852
2022-10-12T09:02:51.722Z,142.07074
2022-10-12T09:07:53.304Z,168.81752
2022-10-12T09:12:54.895Z,183.68872
2022-10-12T09:17:56.466Z,205.01695
2022-10-12T09:22:58.074Z,248.9505
2022-10-12T09:27:59.677Z,194.4065
2022-10-12T09:33:01.500Z,196.45902
2022-10-12T09:38:03.084Z,233.20188
2022-10-12T09:43:04.814Z,304.23392
2022-10-12T09:48:06.472Z,286.22222
2022-10-12T09:53:08.082Z,360.21622
2022-10-12T09:58:09.715Z,259.89744
2022-10-12T10:03:11.318Z,336.35669
2022-10-12T10:08:12.893Z,338.87179
2022-10-12T10:13:14.481Z,304.23392
2022-10-12T10:18:16.111Z,266.51309
2022-10-12T10:23:17.707Z,273.41176
2022-10-12T10:28:19.293Z,225.27854
2022-10-12T10:33:20.938Z,225.27854
2022-10-12T10:38:22.541Z,275.1828
2022-10-12T10:43:24.249Z,261.52577
2022-10-12T10:48:25.832Z,222.73303
2022-10-12T10:53:27.446Z,216.56637
2022-10-12T10:58:29.026Z,203.91561
2022-10-12T11:03:30.597Z,181.83784
2022-10-12T11:08:32.193Z,248.9505
2022-10-12T11:13:33.815Z,217.77778
2022-10-12T11:18:35.410Z,164.78853
2022-10-12T11:23:37.032Z,205.01695
2022-10-12T11:28:38.678Z,216.56637
2022-10-12T11:33:40.310Z,220.23318
2022-10-12T11:38:41.932Z,201.74059
2022-10-12T11:43:43.539Z,167.18841
2022-10-12T11:48:45.127Z,148.65116
2022-10-12T11:53:46.751Z,152.10811
2022-10-12T11:59:00.587Z,159.38462
2022-10-12T12:04:22.644Z,175.57895
2022-10-12T12:09:31.301Z,158.63415
2022-10-12T12:14:32.960Z,168
2022-10-12T12:19:34.567Z,164.78853
2022-10-12T12:24:38.636Z,140.80511
2022-10-12T12:29:41.021Z,132.3792
2022-10-12T12:34:43.087Z,132.95706
2022-10-12T12:39:45.229Z,179.1145
2022-10-12T12:44:46.856Z,224
2022-10-12T12:49:48.450Z,140.80511
2022-10-12T12:54:53.248Z,140.80511
2022-10-12T12:59:55.356Z,148.65116
2022-10-12T13:04:57.014Z,168.81752
2022-10-12T13:09:58.593Z,189.41833
2022-10-12T13:15:00.195Z,142.70968
2022-10-12T13:20:01.901Z,111.3913
2022-10-12T13:25:03.551Z,117.52113
2022-10-12T13:30:05.254Z,110.93767
2022-10-12T13:35:06.898Z,113.69697
2022-10-12T13:40:08.491Z,119
2022-10-12T13:45:10.098Z,102.35476
2022-10-12T13:50:11.706Z,92.79227
2022-10-12T13:55:13.346Z,93.87835
2022-10-12T14:00:14.950Z,105.25654
2022-10-12T14:05:16.587Z,98
2022-10-12T14:10:18.196Z,93.15254
2022-10-12T14:15:19.855Z,98.38596
2022-10-12T14:20:21.480Z,96.8536
2022-10-12T14:25:23.049Z,96.47525
2022-10-12T14:30:24.609Z,93.87835
2022-10-12T14:35:26.235Z,98
2022-10-12T14:40:27.849Z,108.70588
2022-10-12T14:45:29.420Z,106.96296
2022-10-12T14:50:31.050Z,106.53298
2022-10-12T14:55:32.662Z,98.38596
2022-10-12T15:00:34.353Z,93.51456
2022-10-12T15:05:36.013Z,94.98039
2022-10-12T15:10:37.587Z,101.14286
2022-10-12T15:15:39.161Z,125.17647
2022-10-12T15:20:43.231Z,112.76712
2022-10-12T15:25:48.584Z,139.55556
2022-10-12T15:31:15.764Z,134.12346
2022-10-12T15:36:18.569Z,145.96721
2022-10-12T15:41:20.135Z,174.71161
2022-10-12T15:46:21.722Z,161.66784
2022-10-12T15:51:23.330Z,193.39271
2022-10-12T15:56:24.935Z,205.01695
2022-10-12T16:01:26.615Z,182.75969
2022-10-12T16:06:28.230Z,202.82353
2022-10-12T16:11:29.843Z,215.36564
2022-10-12T16:16:31.364Z,258.28571
2022-10-12T16:21:32.997Z,269.92593
2022-10-12T16:26:34.572Z,231.85047
2022-10-12T16:31:36.259Z,256.69036
2022-10-12T16:36:37.926Z,235.94313
2022-10-12T16:41:39.526Z,280.61202
2022-10-12T16:46:41.122Z,263.17098
2022-10-12T16:51:42.810Z,321.91411
2022-10-12T16:56:44.434Z,298.02299
2022-10-12T17:01:46.019Z,331.42138
2022-10-12T17:06:47.633Z,268.21053
2022-10-12T17:11:49.230Z,250.46766
2022-10-12T17:16:50.973Z,292.0226
2022-10-12T17:21:52.550Z,300.06936
2022-10-12T17:26:54.312Z,368.82759
2022-10-12T17:31:55.872Z,444.81301
2022-10-12T17:36:57.470Z,403.70149
2022-10-12T17:41:59.102Z,457.33333
2022-10-12T17:47:00.737Z,384
2022-10-12T17:52:02.328Z,421.51938
2022-10-12T17:57:03.998Z,509.13761
2022-10-12T18:02:09.389Z,403.70149
2022-10-12T18:07:11.324Z,425.25
2022-10-12T18:12:12.909Z,371.77778
2022-10-12T18:17:14.549Z,344
2022-10-12T18:22:16.402Z,329
2022-10-12T18:27:18.200Z,290.06742
2022-10-12T18:32:20.217Z,298.02299
2022-10-12T18:37:22.013Z,333.87342
2022-10-12T18:42:23.772Z,329
2022-10-12T18:47:25.382Z,312.86228
2022-10-12T18:52:27.025Z,351.94702
2022-10-12T18:57:31.216Z,363.04762
2022-10-12T19:02:34.522Z,351.94702
2022-10-12T19:07:36.141Z,351.94702
2022-10-12T19:12:40.152Z,317.33333
2022-10-12T19:17:45.393Z,312.86228
2022-10-12T19:22:46.988Z,326.6087
2022-10-12T19:27:48.565Z,390.37681
2022-10-12T19:32:50.210Z,371.77778
2022-10-12T19:37:51.857Z,312.86228
2022-10-12T19:42:53.416Z,294
2022-10-12T19:47:55.018Z,263.17098
2022-10-12T19:52:56.649Z,336.35669
2022-10-12T19:57:58.436Z,380.87943
2022-10-12T20:03:00.027Z,319.60976
2022-10-12T20:08:01.780Z,346.61438
2022-10-12T20:13:03.648Z,371.77778
2022-10-12T20:18:05.251Z,312.86228
2022-10-12T20:23:06.842Z,387.16547
2022-10-12T20:28:08.462Z,384
2022-10-12T20:33:10.099Z,417.84615
2022-10-12T20:38:11.696Z,396.94118
2022-10-12T20:43:13.317Z,410.66667
2022-10-12T20:48:14.913Z,475.03448
2022-10-12T20:53:17.492Z,470.49573
2022-10-12T20:58:19.040Z,407.15789
2022-10-12T21:03:20.669Z,425.25
2022-10-12T21:08:22.279Z,432.88889
2022-10-12T21:13:23.959Z,466.0339
2022-10-12T21:18:25.586Z,514.37037
2022-10-12T21:23:27.185Z,448.91803
2022-10-12T21:28:28.805Z,453.09091
2022-10-12T21:33:30.432Z,390.37681
2022-10-12T21:38:32.067Z,444.81301
2022-10-12T21:43:33.706Z,585.66667
2022-10-12T21:48:35.325Z,525.13208
2022-10-12T21:53:36.960Z,396.94118
2022-10-12T21:58:38.557Z,652.04598
2022-10-12T22:03:40.114Z,444.81301
2022-10-12T22:08:41.703Z,390.37681
2022-10-12T22:13:43.337Z,668.70588
2022-10-12T22:18:44.914Z,744
2022-10-12T22:23:46.503Z,390.37681
2022-10-12T22:28:48.451Z,212.99563
2022-10-12T22:33:50.060Z,319.60976
2022-10-12T22:38:51.653Z,296
2022-10-12T22:43:53.373Z,444.81301
2022-10-12T22:48:54.985Z,414.22901
2022-10-12T22:53:56.584Z,396.94118
2022-10-12T22:58:58.225Z,377.80282
2022-10-12T23:03:59.839Z,371.77778
2022-10-12T23:09:01.498Z,504
2022-10-12T23:14:03.093Z,315.08434
2022-10-12T23:19:04.728Z,302.13953
2022-10-12T23:24:06.318Z,259.89744
2022-10-12T23:29:07.935Z,225.27854
2022-10-12T23:34:09.535Z,171.30627
2022-10-12T23:39:11.114Z,137.71069
2022-10-12T23:44:12.730Z,133.53846
2022-10-12T23:49:14.356Z,172.99628
2022-10-12T23:54:15.964Z,176.45283
2022-10-12T23:59:17.613Z,203.91561
